sensor_id;sensor_type;location;lat;lon;timestamp;P1;durP1;ratioP1;P2;durP2;ratioP2
18716;SDS011;9487;50.892;6.906;2022-12-07T00:00:49;31.57;;;26.17;;
18716;SDS011;9487;50.892;6.906;2022-12-07T00:03:16;33.30;;;26.73;;
18716;SDS011;9487;50.892;6.906;2022-12-07T00:05:43;33.30;;;25.10;;
18716;SDS011;9487;50.892;6.906;2022-12-07T00:08:11;32.03;;;26.17;;
18716;SDS011;9487;50.892;6.906;2022-12-07T00:10:38;29.97;;;25.00;;
18716;SDS011;9487;50.892;6.906;2022-12-07T00:13:05;34.37;;;27.13;;
18716;SDS011;9487;50.892;6.906;2022-12-07T00:15:33;35.77;;;27.60;;
18716;SDS011;9487;50.892;6.906;2022-12-07T00:18:00;38.30;;;26.90;;
18716;SDS011;9487;50.892;6.906;2022-12-07T00:20:27;32.93;;;27.33;;
18716;SDS011;9487;50.892;6.906;2022-12-07T00:22:55;32.53;;;25.40;;
18716;SDS011;9487;50.892;6.906;2022-12-07T00:25:23;32.50;;;26.00;;
18716;SDS011;9487;50.892;6.906;2022-12-07T00:27:51;34.30;;;27.83;;
18716;SDS011;9487;50.892;6.906;2022-12-07T00:30:20;37.73;;;29.47;;
18716;SDS011;9487;50.892;6.906;2022-12-07T00:32:47;36.17;;;28.67;;
18716;SDS011;9487;50.892;6.906;2022-12-07T00:35:14;32.97;;;27.70;;
18716;SDS011;9487;50.892;6.906;2022-12-07T00:37:41;36.33;;;28.33;;
18716;SDS011;9487;50.892;6.906;2022-12-07T00:40:08;34.73;;;28.10;;
18716;SDS011;9487;50.892;6.906;2022-12-07T00:42:37;33.13;;;27.67;;
18716;SDS011;9487;50.892;6.906;2022-12-07T00:45:04;32.93;;;27.30;;
18716;SDS011;9487;50.892;6.906;2022-12-07T00:47:32;32.07;;;28.00;;
18716;SDS011;9487;50.892;6.906;2022-12-07T00:49:59;35.63;;;26.87;;
18716;SDS011;9487;50.892;6.906;2022-12-07T00:52:26;33.13;;;27.63;;
18716;SDS011;9487;50.892;6.906;2022-12-07T00:54:52;32.03;;;28.63;;
18716;SDS011;9487;50.892;6.906;2022-12-07T00:57:19;37.80;;;28.67;;
18716;SDS011;9487;50.892;6.906;2022-12-07T00:59:47;30.37;;;27.17;;
18716;SDS011;9487;50.892;6.906;2022-12-07T01:02:14;30.50;;;26.10;;
18716;SDS011;9487;50.892;6.906;2022-12-07T01:04:41;32.70;;;28.70;;
18716;SDS011;9487;50.892;6.906;2022-12-07T01:07:08;33.30;;;27.57;;
18716;SDS011;9487;50.892;6.906;2022-12-07T01:09:35;32.23;;;26.20;;
18716;SDS011;9487;50.892;6.906;2022-12-07T01:12:02;31.83;;;28.03;;
18716;SDS011;9487;50.892;6.906;2022-12-07T01:14:29;37.57;;;27.43;;
18716;SDS011;9487;50.892;6.906;2022-12-07T01:16:57;35.60;;;28.83;;
18716;SDS011;9487;50.892;6.906;2022-12-07T01:19:24;35.33;;;29.83;;
18716;SDS011;9487;50.892;6.906;2022-12-07T01:21:50;33.60;;;29.70;;
18716;SDS011;9487;50.892;6.906;2022-12-07T01:24:17;39.60;;;31.37;;
18716;SDS011;9487;50.892;6.906;2022-12-07T01:26:44;37.43;;;31.53;;
18716;SDS011;9487;50.892;6.906;2022-12-07T01:29:11;38.53;;;30.17;;
18716;SDS011;9487;50.892;6.906;2022-12-07T01:31:38;42.40;;;32.83;;
18716;SDS011;9487;50.892;6.906;2022-12-07T01:34:06;40.07;;;32.47;;
18716;SDS011;9487;50.892;6.906;2022-12-07T01:36:34;39.53;;;32.90;;
18716;SDS011;9487;50.892;6.906;2022-12-07T01:39:03;40.20;;;32.83;;
18716;SDS011;9487;50.892;6.906;2022-12-07T01:41:32;40.23;;;31.73;;
18716;SDS011;9487;50.892;6.906;2022-12-07T01:44:14;43.40;;;32.33;;
18716;SDS011;9487;50.892;6.906;2022-12-07T01:46:47;38.90;;;32.20;;
18716;SDS011;9487;50.892;6.906;2022-12-07T01:49:24;41.03;;;33.43;;
18716;SDS011;9487;50.892;6.906;2022-12-07T01:51:56;39.70;;;31.37;;
18716;SDS011;9487;50.892;6.906;2022-12-07T01:54:29;41.17;;;32.60;;
18716;SDS011;9487;50.892;6.906;2022-12-07T01:56:57;39.30;;;31.67;;
18716;SDS011;9487;50.892;6.906;2022-12-07T01:59:25;38.20;;;32.50;;
18716;SDS011;9487;50.892;6.906;2022-12-07T02:01:52;36.20;;;30.30;;
18716;SDS011;9487;50.892;6.906;2022-12-07T02:04:21;37.53;;;30.13;;
18716;SDS011;9487;50.892;6.906;2022-12-07T02:06:50;34.97;;;30.70;;
18716;SDS011;9487;50.892;6.906;2022-12-07T02:09:18;36.23;;;28.57;;
18716;SDS011;9487;50.892;6.906;2022-12-07T02:11:44;34.80;;;29.53;;
18716;SDS011;9487;50.892;6.906;2022-12-07T02:14:11;35.63;;;29.63;;
18716;SDS011;9487;50.892;6.906;2022-12-07T02:16:42;35.73;;;29.70;;
18716;SDS011;9487;50.892;6.906;2022-12-07T02:22:22;38.97;;;29.63;;
18716;SDS011;9487;50.892;6.906;2022-12-07T02:25:28;35.17;;;30.00;;
18716;SDS011;9487;50.892;6.906;2022-12-07T02:28:12;36.63;;;31.03;;
18716;SDS011;9487;50.892;6.906;2022-12-07T02:30:48;36.47;;;28.47;;
18716;SDS011;9487;50.892;6.906;2022-12-07T02:33:16;37.97;;;31.87;;
18716;SDS011;9487;50.892;6.906;2022-12-07T02:35:48;36.87;;;31.77;;
18716;SDS011;9487;50.892;6.906;2022-12-07T02:38:24;41.67;;;32.93;;
18716;SDS011;9487;50.892;6.906;2022-12-07T02:40:57;37.37;;;30.13;;
18716;SDS011;9487;50.892;6.906;2022-12-07T02:43:29;40.40;;;32.23;;
18716;SDS011;9487;50.892;6.906;2022-12-07T02:46:04;40.27;;;31.80;;
18716;SDS011;9487;50.892;6.906;2022-12-07T02:48:33;41.10;;;33.17;;
18716;SDS011;9487;50.892;6.906;2022-12-07T02:51:01;41.73;;;33.13;;
18716;SDS011;9487;50.892;6.906;2022-12-07T02:53:28;41.83;;;32.57;;
18716;SDS011;9487;50.892;6.906;2022-12-07T02:55:56;42.83;;;33.77;;
18716;SDS011;9487;50.892;6.906;2022-12-07T02:58:28;39.40;;;31.03;;
18716;SDS011;9487;50.892;6.906;2022-12-07T03:01:04;40.20;;;32.80;;
18716;SDS011;9487;50.892;6.906;2022-12-07T03:03:39;42.07;;;31.80;;
18716;SDS011;9487;50.892;6.906;2022-12-07T03:06:12;40.80;;;30.97;;
18716;SDS011;9487;50.892;6.906;2022-12-07T03:08:50;39.10;;;29.43;;
18716;SDS011;9487;50.892;6.906;2022-12-07T03:11:24;41.27;;;32.03;;
18716;SDS011;9487;50.892;6.906;2022-12-07T03:13:58;39.53;;;31.90;;
18716;SDS011;9487;50.892;6.906;2022-12-07T03:16:37;42.07;;;32.47;;
18716;SDS011;9487;50.892;6.906;2022-12-07T03:19:10;39.67;;;32.47;;
18716;SDS011;9487;50.892;6.906;2022-12-07T03:21:43;40.23;;;33.00;;
18716;SDS011;9487;50.892;6.906;2022-12-07T03:24:14;43.73;;;32.73;;
18716;SDS011;9487;50.892;6.906;2022-12-07T03:26:44;42.63;;;34.07;;
18716;SDS011;9487;50.892;6.906;2022-12-07T03:29:17;42.10;;;33.93;;
18716;SDS011;9487;50.892;6.906;2022-12-07T03:31:50;41.53;;;31.73;;
18716;SDS011;9487;50.892;6.906;2022-12-07T03:34:24;42.47;;;33.60;;
18716;SDS011;9487;50.892;6.906;2022-12-07T03:36:56;42.33;;;33.27;;
18716;SDS011;9487;50.892;6.906;2022-12-07T03:39:27;42.07;;;32.80;;
18716;SDS011;9487;50.892;6.906;2022-12-07T03:41:59;43.43;;;32.40;;
18716;SDS011;9487;50.892;6.906;2022-12-07T03:44:29;41.67;;;32.33;;
18716;SDS011;9487;50.892;6.906;2022-12-07T03:46:59;41.90;;;32.47;;
18716;SDS011;9487;50.892;6.906;2022-12-07T03:49:31;39.63;;;32.27;;
18716;SDS011;9487;50.892;6.906;2022-12-07T03:52:07;38.77;;;31.73;;
18716;SDS011;9487;50.892;6.906;2022-12-07T03:54:40;40.10;;;32.03;;
18716;SDS011;9487;50.892;6.906;2022-12-07T03:57:11;38.43;;;30.93;;
18716;SDS011;9487;50.892;6.906;2022-12-07T03:59:39;42.73;;;31.77;;
18716;SDS011;9487;50.892;6.906;2022-12-07T04:02:09;40.40;;;30.73;;
18716;SDS011;9487;50.892;6.906;2022-12-07T04:04:39;37.73;;;29.63;;
18716;SDS011;9487;50.892;6.906;2022-12-07T04:07:06;37.07;;;28.17;;
18716;SDS011;9487;50.892;6.906;2022-12-07T04:09:33;36.17;;;29.17;;
18716;SDS011;9487;50.892;6.906;2022-12-07T04:11:59;38.23;;;29.23;;
18716;SDS011;9487;50.892;6.906;2022-12-07T04:14:26;37.87;;;30.77;;
18716;SDS011;9487;50.892;6.906;2022-12-07T04:16:54;40.47;;;29.77;;
18716;SDS011;9487;50.892;6.906;2022-12-07T04:19:25;38.03;;;30.40;;
18716;SDS011;9487;50.892;6.906;2022-12-07T04:21:53;40.90;;;31.57;;
18716;SDS011;9487;50.892;6.906;2022-12-07T04:24:20;37.33;;;31.03;;
18716;SDS011;9487;50.892;6.906;2022-12-07T04:26:47;39.60;;;29.47;;
18716;SDS011;9487;50.892;6.906;2022-12-07T04:29:15;38.30;;;30.57;;
18716;SDS011;9487;50.892;6.906;2022-12-07T04:31:42;39.83;;;31.13;;
18716;SDS011;9487;50.892;6.906;2022-12-07T04:34:09;39.87;;;30.50;;
18716;SDS011;9487;50.892;6.906;2022-12-07T04:36:38;38.30;;;31.57;;
18716;SDS011;9487;50.892;6.906;2022-12-07T04:39:06;37.60;;;29.33;;
18716;SDS011;9487;50.892;6.906;2022-12-07T04:41:34;34.60;;;28.50;;
18716;SDS011;9487;50.892;6.906;2022-12-07T04:44:02;39.57;;;30.03;;
18716;SDS011;9487;50.892;6.906;2022-12-07T04:46:32;38.33;;;29.60;;
18716;SDS011;9487;50.892;6.906;2022-12-07T04:48:59;41.00;;;31.77;;
18716;SDS011;9487;50.892;6.906;2022-12-07T04:51:27;37.23;;;30.10;;
18716;SDS011;9487;50.892;6.906;2022-12-07T04:53:56;40.77;;;30.57;;
18716;SDS011;9487;50.892;6.906;2022-12-07T04:56:23;35.67;;;27.90;;
18716;SDS011;9487;50.892;6.906;2022-12-07T04:58:51;38.23;;;30.03;;
18716;SDS011;9487;50.892;6.906;2022-12-07T05:01:19;40.67;;;28.87;;
18716;SDS011;9487;50.892;6.906;2022-12-07T05:03:46;36.67;;;29.93;;
18716;SDS011;9487;50.892;6.906;2022-12-07T05:06:13;41.23;;;30.70;;
18716;SDS011;9487;50.892;6.906;2022-12-07T05:08:41;37.80;;;30.03;;
18716;SDS011;9487;50.892;6.906;2022-12-07T05:11:10;41.63;;;31.20;;
18716;SDS011;9487;50.892;6.906;2022-12-07T05:13:59;36.57;;;29.60;;
18716;SDS011;9487;50.892;6.906;2022-12-07T05:16:26;39.20;;;31.67;;
18716;SDS011;9487;50.892;6.906;2022-12-07T05:18:53;39.40;;;30.40;;
18716;SDS011;9487;50.892;6.906;2022-12-07T05:21:20;40.27;;;29.87;;
18716;SDS011;9487;50.892;6.906;2022-12-07T05:23:47;37.87;;;29.50;;
18716;SDS011;9487;50.892;6.906;2022-12-07T05:26:15;39.13;;;30.23;;
18716;SDS011;9487;50.892;6.906;2022-12-07T05:28:42;38.07;;;29.53;;
18716;SDS011;9487;50.892;6.906;2022-12-07T05:31:09;39.93;;;29.70;;
18716;SDS011;9487;50.892;6.906;2022-12-07T05:33:36;44.93;;;31.83;;
18716;SDS011;9487;50.892;6.906;2022-12-07T05:36:03;40.40;;;30.03;;
18716;SDS011;9487;50.892;6.906;2022-12-07T05:38:32;41.80;;;32.97;;
18716;SDS011;9487;50.892;6.906;2022-12-07T05:41:00;41.90;;;31.97;;
18716;SDS011;9487;50.892;6.906;2022-12-07T05:43:29;41.03;;;32.07;;
18716;SDS011;9487;50.892;6.906;2022-12-07T05:45:56;39.17;;;29.97;;
18716;SDS011;9487;50.892;6.906;2022-12-07T05:48:23;40.07;;;30.87;;
18716;SDS011;9487;50.892;6.906;2022-12-07T05:50:50;45.87;;;33.77;;
18716;SDS011;9487;50.892;6.906;2022-12-07T05:53:18;41.67;;;32.37;;
18716;SDS011;9487;50.892;6.906;2022-12-07T05:55:45;43.70;;;31.87;;
18716;SDS011;9487;50.892;6.906;2022-12-07T05:58:11;46.67;;;32.87;;
18716;SDS011;9487;50.892;6.906;2022-12-07T06:01:03;43.77;;;33.67;;
18716;SDS011;9487;50.892;6.906;2022-12-07T06:03:30;45.27;;;33.17;;
18716;SDS011;9487;50.892;6.906;2022-12-07T06:05:56;41.20;;;31.70;;
18716;SDS011;9487;50.892;6.906;2022-12-07T06:08:23;41.17;;;30.73;;
18716;SDS011;9487;50.892;6.906;2022-12-07T06:10:50;40.47;;;31.73;;
18716;SDS011;9487;50.892;6.906;2022-12-07T06:13:37;37.73;;;29.00;;
18716;SDS011;9487;50.892;6.906;2022-12-07T06:16:04;39.27;;;31.57;;
18716;SDS011;9487;50.892;6.906;2022-12-07T06:18:32;37.97;;;28.13;;
18716;SDS011;9487;50.892;6.906;2022-12-07T06:20:59;33.30;;;27.43;;
18716;SDS011;9487;50.892;6.906;2022-12-07T06:23:25;35.17;;;28.67;;
18716;SDS011;9487;50.892;6.906;2022-12-07T06:25:52;43.93;;;30.97;;
18716;SDS011;9487;50.892;6.906;2022-12-07T06:28:19;42.47;;;31.40;;
18716;SDS011;9487;50.892;6.906;2022-12-07T06:30:46;42.27;;;31.77;;
18716;SDS011;9487;50.892;6.906;2022-12-07T06:33:14;44.17;;;33.77;;
18716;SDS011;9487;50.892;6.906;2022-12-07T06:35:41;44.17;;;34.03;;
18716;SDS011;9487;50.892;6.906;2022-12-07T06:38:07;45.73;;;33.60;;
18716;SDS011;9487;50.892;6.906;2022-12-07T06:40:34;47.70;;;33.53;;
18716;SDS011;9487;50.892;6.906;2022-12-07T06:43:01;41.20;;;32.73;;
18716;SDS011;9487;50.892;6.906;2022-12-07T06:45:28;43.10;;;31.33;;
18716;SDS011;9487;50.892;6.906;2022-12-07T06:47:54;43.63;;;32.57;;
18716;SDS011;9487;50.892;6.906;2022-12-07T06:50:22;41.37;;;31.70;;
18716;SDS011;9487;50.892;6.906;2022-12-07T06:52:50;38.50;;;29.60;;
18716;SDS011;9487;50.892;6.906;2022-12-07T06:55:17;39.70;;;29.10;;
18716;SDS011;9487;50.892;6.906;2022-12-07T06:57:44;38.33;;;27.60;;
18716;SDS011;9487;50.892;6.906;2022-12-07T07:00:11;36.03;;;27.50;;
18716;SDS011;9487;50.892;6.906;2022-12-07T07:02:39;36.30;;;27.17;;
18716;SDS011;9487;50.892;6.906;2022-12-07T07:05:06;34.70;;;27.40;;
18716;SDS011;9487;50.892;6.906;2022-12-07T07:07:35;39.43;;;30.63;;
18716;SDS011;9487;50.892;6.906;2022-12-07T07:10:01;40.20;;;29.63;;
18716;SDS011;9487;50.892;6.906;2022-12-07T07:12:28;39.67;;;30.13;;
18716;SDS011;9487;50.892;6.906;2022-12-07T07:14:55;41.07;;;29.90;;
18716;SDS011;9487;50.892;6.906;2022-12-07T07:17:22;37.73;;;31.07;;
18716;SDS011;9487;50.892;6.906;2022-12-07T07:19:49;37.97;;;32.10;;
18716;SDS011;9487;50.892;6.906;2022-12-07T07:22:16;42.40;;;31.20;;
18716;SDS011;9487;50.892;6.906;2022-12-07T07:24:44;38.13;;;31.17;;
18716;SDS011;9487;50.892;6.906;2022-12-07T07:27:11;39.40;;;30.67;;
18716;SDS011;9487;50.892;6.906;2022-12-07T07:29:38;38.53;;;31.17;;
18716;SDS011;9487;50.892;6.906;2022-12-07T07:32:05;39.33;;;30.67;;
18716;SDS011;9487;50.892;6.906;2022-12-07T07:34:32;36.43;;;27.93;;
18716;SDS011;9487;50.892;6.906;2022-12-07T07:36:59;38.17;;;28.70;;
18716;SDS011;9487;50.892;6.906;2022-12-07T07:39:26;38.13;;;29.57;;
18716;SDS011;9487;50.892;6.906;2022-12-07T07:41:55;39.33;;;30.67;;
18716;SDS011;9487;50.892;6.906;2022-12-07T07:44:21;37.63;;;29.53;;
18716;SDS011;9487;50.892;6.906;2022-12-07T07:46:48;41.27;;;29.30;;
18716;SDS011;9487;50.892;6.906;2022-12-07T07:49:15;36.87;;;27.93;;
18716;SDS011;9487;50.892;6.906;2022-12-07T07:51:42;38.93;;;29.97;;
18716;SDS011;9487;50.892;6.906;2022-12-07T07:54:09;39.70;;;29.90;;
18716;SDS011;9487;50.892;6.906;2022-12-07T07:56:36;39.90;;;29.63;;
18716;SDS011;9487;50.892;6.906;2022-12-07T07:59:04;34.87;;;28.00;;
18716;SDS011;9487;50.892;6.906;2022-12-07T08:01:31;36.93;;;28.87;;
18716;SDS011;9487;50.892;6.906;2022-12-07T08:03:57;37.57;;;29.27;;
18716;SDS011;9487;50.892;6.906;2022-12-07T08:06:24;38.27;;;28.03;;
18716;SDS011;9487;50.892;6.906;2022-12-07T08:08:51;42.00;;;30.40;;
18716;SDS011;9487;50.892;6.906;2022-12-07T08:11:18;37.47;;;27.57;;
18716;SDS011;9487;50.892;6.906;2022-12-07T08:13:45;35.10;;;27.73;;
18716;SDS011;9487;50.892;6.906;2022-12-07T08:16:14;33.43;;;26.83;;
18716;SDS011;9487;50.892;6.906;2022-12-07T08:18:41;32.57;;;24.03;;
18716;SDS011;9487;50.892;6.906;2022-12-07T08:21:09;29.70;;;24.67;;
18716;SDS011;9487;50.892;6.906;2022-12-07T08:23:38;30.77;;;24.07;;
18716;SDS011;9487;50.892;6.906;2022-12-07T08:26:05;29.13;;;23.73;;
18716;SDS011;9487;50.892;6.906;2022-12-07T08:28:34;29.77;;;24.10;;
18716;SDS011;9487;50.892;6.906;2022-12-07T08:31:01;28.27;;;22.63;;
18716;SDS011;9487;50.892;6.906;2022-12-07T08:33:30;28.80;;;23.20;;
18716;SDS011;9487;50.892;6.906;2022-12-07T08:36:00;28.90;;;23.07;;
18716;SDS011;9487;50.892;6.906;2022-12-07T08:38:27;27.37;;;21.17;;
18716;SDS011;9487;50.892;6.906;2022-12-07T08:40:54;26.10;;;22.03;;
18716;SDS011;9487;50.892;6.906;2022-12-07T08:43:21;27.00;;;21.83;;
18716;SDS011;9487;50.892;6.906;2022-12-07T08:45:49;29.23;;;20.80;;
18716;SDS011;9487;50.892;6.906;2022-12-07T08:48:25;27.87;;;22.33;;
18716;SDS011;9487;50.892;6.906;2022-12-07T08:50:53;26.93;;;21.17;;
18716;SDS011;9487;50.892;6.906;2022-12-07T08:53:20;25.40;;;20.87;;
18716;SDS011;9487;50.892;6.906;2022-12-07T08:55:48;27.77;;;22.27;;
18716;SDS011;9487;50.892;6.906;2022-12-07T08:58:15;27.40;;;19.30;;
18716;SDS011;9487;50.892;6.906;2022-12-07T09:00:42;30.50;;;21.50;;
18716;SDS011;9487;50.892;6.906;2022-12-07T09:03:09;30.20;;;23.10;;
18716;SDS011;9487;50.892;6.906;2022-12-07T09:05:36;25.73;;;20.47;;
18716;SDS011;9487;50.892;6.906;2022-12-07T09:08:04;27.17;;;21.87;;
18716;SDS011;9487;50.892;6.906;2022-12-07T09:10:32;30.47;;;25.03;;
18716;SDS011;9487;50.892;6.906;2022-12-07T09:12:59;30.67;;;24.63;;
18716;SDS011;9487;50.892;6.906;2022-12-07T09:15:26;29.73;;;23.97;;
18716;SDS011;9487;50.892;6.906;2022-12-07T09:17:53;27.37;;;22.67;;
18716;SDS011;9487;50.892;6.906;2022-12-07T09:20:20;28.90;;;22.13;;
18716;SDS011;9487;50.892;6.906;2022-12-07T09:22:47;29.53;;;23.57;;
18716;SDS011;9487;50.892;6.906;2022-12-07T09:25:15;29.63;;;22.27;;
18716;SDS011;9487;50.892;6.906;2022-12-07T09:27:42;28.67;;;21.70;;
18716;SDS011;9487;50.892;6.906;2022-12-07T09:30:10;28.40;;;22.10;;
18716;SDS011;9487;50.892;6.906;2022-12-07T09:32:36;28.30;;;22.10;;
18716;SDS011;9487;50.892;6.906;2022-12-07T09:35:03;30.43;;;23.10;;
18716;SDS011;9487;50.892;6.906;2022-12-07T09:37:31;30.43;;;21.13;;
18716;SDS011;9487;50.892;6.906;2022-12-07T09:40:00;27.77;;;21.17;;
18716;SDS011;9487;50.892;6.906;2022-12-07T09:42:29;31.50;;;22.80;;
18716;SDS011;9487;50.892;6.906;2022-12-07T09:45:00;25.60;;;21.00;;
18716;SDS011;9487;50.892;6.906;2022-12-07T09:47:27;26.70;;;21.57;;
18716;SDS011;9487;50.892;6.906;2022-12-07T09:49:55;22.57;;;15.70;;
18716;SDS011;9487;50.892;6.906;2022-12-07T09:52:29;29.10;;;23.20;;
18716;SDS011;9487;50.892;6.906;2022-12-07T09:54:57;26.80;;;20.60;;
18716;SDS011;9487;50.892;6.906;2022-12-07T09:57:25;23.17;;;18.93;;
18716;SDS011;9487;50.892;6.906;2022-12-07T09:59:56;24.63;;;19.87;;
18716;SDS011;9487;50.892;6.906;2022-12-07T10:02:35;26.57;;;19.53;;
18716;SDS011;9487;50.892;6.906;2022-12-07T10:05:04;22.47;;;17.90;;
18716;SDS011;9487;50.892;6.906;2022-12-07T10:07:32;21.30;;;17.63;;
18716;SDS011;9487;50.892;6.906;2022-12-07T10:10:01;17.83;;;14.90;;
18716;SDS011;9487;50.892;6.906;2022-12-07T10:12:31;22.57;;;16.70;;
18716;SDS011;9487;50.892;6.906;2022-12-07T10:15:22;21.30;;;15.30;;
18716;SDS011;9487;50.892;6.906;2022-12-07T10:17:49;22.80;;;15.47;;
18716;SDS011;9487;50.892;6.906;2022-12-07T10:20:18;21.87;;;14.03;;
18716;SDS011;9487;50.892;6.906;2022-12-07T10:22:58;18.03;;;14.57;;
18716;SDS011;9487;50.892;6.906;2022-12-07T10:25:27;22.03;;;15.30;;
18716;SDS011;9487;50.892;6.906;2022-12-07T10:27:59;24.00;;;14.00;;
18716;SDS011;9487;50.892;6.906;2022-12-07T10:30:28;20.10;;;13.63;;
18716;SDS011;9487;50.892;6.906;2022-12-07T10:32:56;19.40;;;13.80;;
18716;SDS011;9487;50.892;6.906;2022-12-07T10:35:24;26.23;;;14.53;;
18716;SDS011;9487;50.892;6.906;2022-12-07T10:37:52;19.27;;;13.57;;
18716;SDS011;9487;50.892;6.906;2022-12-07T10:40:24;20.17;;;13.40;;
18716;SDS011;9487;50.892;6.906;2022-12-07T10:43:01;18.97;;;13.57;;
18716;SDS011;9487;50.892;6.906;2022-12-07T10:45:41;18.87;;;14.03;;
18716;SDS011;9487;50.892;6.906;2022-12-07T10:48:27;18.63;;;12.87;;
18716;SDS011;9487;50.892;6.906;2022-12-07T10:51:02;20.00;;;11.90;;
18716;SDS011;9487;50.892;6.906;2022-12-07T10:53:45;17.33;;;12.43;;
18716;SDS011;9487;50.892;6.906;2022-12-07T10:59:38;15.33;;;11.50;;
18716;SDS011;9487;50.892;6.906;2022-12-07T11:02:15;17.17;;;12.53;;
18716;SDS011;9487;50.892;6.906;2022-12-07T11:04:55;19.10;;;12.13;;
18716;SDS011;9487;50.892;6.906;2022-12-07T11:07:34;15.63;;;11.13;;
18716;SDS011;9487;50.892;6.906;2022-12-07T11:10:11;16.60;;;10.40;;
18716;SDS011;9487;50.892;6.906;2022-12-07T11:12:47;13.47;;;10.97;;
18716;SDS011;9487;50.892;6.906;2022-12-07T11:15:31;23.10;;;12.10;;
18716;SDS011;9487;50.892;6.906;2022-12-07T11:18:10;12.70;;;10.23;;
18716;SDS011;9487;50.892;6.906;2022-12-07T11:20:43;14.30;;;9.20;;
18716;SDS011;9487;50.892;6.906;2022-12-07T11:23:18;16.13;;;9.43;;
18716;SDS011;9487;50.892;6.906;2022-12-07T11:25:54;14.50;;;8.93;;
18716;SDS011;9487;50.892;6.906;2022-12-07T11:28:33;12.57;;;7.70;;
18716;SDS011;9487;50.892;6.906;2022-12-07T11:31:17;9.77;;;7.10;;
18716;SDS011;9487;50.892;6.906;2022-12-07T11:33:49;12.20;;;7.03;;
18716;SDS011;9487;50.892;6.906;2022-12-07T11:36:30;14.47;;;7.70;;
18716;SDS011;9487;50.892;6.906;2022-12-07T11:39:02;14.90;;;8.73;;
18716;SDS011;9487;50.892;6.906;2022-12-07T11:41:32;13.57;;;8.57;;
18716;SDS011;9487;50.892;6.906;2022-12-07T11:44:02;14.33;;;8.20;;
18716;SDS011;9487;50.892;6.906;2022-12-07T11:46:39;11.00;;;7.27;;
18716;SDS011;9487;50.892;6.906;2022-12-07T11:49:19;11.73;;;7.63;;
18716;SDS011;9487;50.892;6.906;2022-12-07T11:51:51;14.23;;;7.87;;
18716;SDS011;9487;50.892;6.906;2022-12-07T11:54:24;13.40;;;8.33;;
18716;SDS011;9487;50.892;6.906;2022-12-07T11:56:55;14.57;;;8.47;;
18716;SDS011;9487;50.892;6.906;2022-12-07T11:59:29;12.37;;;9.20;;
18716;SDS011;9487;50.892;6.906;2022-12-07T12:02:07;14.77;;;10.50;;
18716;SDS011;9487;50.892;6.906;2022-12-07T12:04:43;16.93;;;10.23;;
18716;SDS011;9487;50.892;6.906;2022-12-07T12:07:16;14.10;;;9.93;;
18716;SDS011;9487;50.892;6.906;2022-12-07T12:09:48;14.43;;;10.27;;
18716;SDS011;9487;50.892;6.906;2022-12-07T12:12:26;19.50;;;11.40;;
18716;SDS011;9487;50.892;6.906;2022-12-07T12:15:10;17.17;;;11.50;;
18716;SDS011;9487;50.892;6.906;2022-12-07T12:17:57;17.07;;;11.47;;
18716;SDS011;9487;50.892;6.906;2022-12-07T12:20:32;17.03;;;12.50;;
18716;SDS011;9487;50.892;6.906;2022-12-07T12:23:07;20.67;;;12.27;;
18716;SDS011;9487;50.892;6.906;2022-12-07T12:25:40;19.40;;;14.17;;
18716;SDS011;9487;50.892;6.906;2022-12-07T12:28:18;19.57;;;13.47;;
18716;SDS011;9487;50.892;6.906;2022-12-07T12:31:04;18.17;;;13.23;;
18716;SDS011;9487;50.892;6.906;2022-12-07T12:33:36;15.73;;;10.53;;
18716;SDS011;9487;50.892;6.906;2022-12-07T12:36:18;13.27;;;10.07;;
18716;SDS011;9487;50.892;6.906;2022-12-07T12:38:49;18.80;;;11.90;;
18716;SDS011;9487;50.892;6.906;2022-12-07T12:44:41;14.63;;;10.47;;
18716;SDS011;9487;50.892;6.906;2022-12-07T12:47:52;14.10;;;10.50;;
18716;SDS011;9487;50.892;6.906;2022-12-07T12:50:22;16.57;;;10.87;;
18716;SDS011;9487;50.892;6.906;2022-12-07T12:55:49;13.07;;;10.70;;
18716;SDS011;9487;50.892;6.906;2022-12-07T12:58:40;12.53;;;9.40;;
18716;SDS011;9487;50.892;6.906;2022-12-07T13:04:16;16.93;;;10.73;;
18716;SDS011;9487;50.892;6.906;2022-12-07T13:07:06;19.97;;;10.83;;
18716;SDS011;9487;50.892;6.906;2022-12-07T13:09:42;16.57;;;11.53;;
18716;SDS011;9487;50.892;6.906;2022-12-07T13:12:12;18.07;;;11.77;;
18716;SDS011;9487;50.892;6.906;2022-12-07T13:14:56;16.57;;;12.80;;
18716;SDS011;9487;50.892;6.906;2022-12-07T13:20:40;20.97;;;12.90;;
18716;SDS011;9487;50.892;6.906;2022-12-07T13:23:31;16.73;;;12.43;;
18716;SDS011;9487;50.892;6.906;2022-12-07T13:26:04;20.10;;;13.03;;
18716;SDS011;9487;50.892;6.906;2022-12-07T13:28:41;17.20;;;13.53;;
18716;SDS011;9487;50.892;6.906;2022-12-07T13:31:14;20.70;;;12.87;;
18716;SDS011;9487;50.892;6.906;2022-12-07T13:33:59;16.93;;;12.27;;
18716;SDS011;9487;50.892;6.906;2022-12-07T13:36:28;16.60;;;11.53;;
18716;SDS011;9487;50.892;6.906;2022-12-07T13:39:10;16.93;;;12.60;;
18716;SDS011;9487;50.892;6.906;2022-12-07T13:41:42;17.57;;;12.07;;
18716;SDS011;9487;50.892;6.906;2022-12-07T13:44:10;18.87;;;13.10;;
18716;SDS011;9487;50.892;6.906;2022-12-07T13:46:43;18.40;;;11.47;;
18716;SDS011;9487;50.892;6.906;2022-12-07T13:49:16;15.67;;;11.77;;
18716;SDS011;9487;50.892;6.906;2022-12-07T13:51:45;15.40;;;11.60;;
18716;SDS011;9487;50.892;6.906;2022-12-07T13:54:13;17.03;;;11.33;;
18716;SDS011;9487;50.892;6.906;2022-12-07T13:56:41;16.27;;;10.50;;
18716;SDS011;9487;50.892;6.906;2022-12-07T13:59:18;14.20;;;10.90;;
18716;SDS011;9487;50.892;6.906;2022-12-07T14:01:47;16.93;;;11.73;;
18716;SDS011;9487;50.892;6.906;2022-12-07T14:04:30;15.97;;;11.33;;
18716;SDS011;9487;50.892;6.906;2022-12-07T14:06:59;18.00;;;11.00;;
18716;SDS011;9487;50.892;6.906;2022-12-07T14:09:28;13.70;;;10.43;;
18716;SDS011;9487;50.892;6.906;2022-12-07T14:11:56;13.87;;;11.17;;
18716;SDS011;9487;50.892;6.906;2022-12-07T14:14:25;16.17;;;11.37;;
18716;SDS011;9487;50.892;6.906;2022-12-07T14:16:59;14.67;;;9.83;;
18716;SDS011;9487;50.892;6.906;2022-12-07T14:19:41;14.70;;;10.70;;
18716;SDS011;9487;50.892;6.906;2022-12-07T14:25:01;17.30;;;11.50;;
18716;SDS011;9487;50.892;6.906;2022-12-07T14:27:47;14.40;;;11.40;;
18716;SDS011;9487;50.892;6.906;2022-12-07T14:30:20;15.27;;;12.20;;
18716;SDS011;9487;50.892;6.906;2022-12-07T14:32:50;17.80;;;11.03;;
18716;SDS011;9487;50.892;6.906;2022-12-07T14:35:19;13.73;;;11.10;;
18716;SDS011;9487;50.892;6.906;2022-12-07T14:37:47;16.97;;;12.17;;
18716;SDS011;9487;50.892;6.906;2022-12-07T14:40:17;12.63;;;10.17;;
18716;SDS011;9487;50.892;6.906;2022-12-07T14:42:46;13.27;;;9.97;;
18716;SDS011;9487;50.892;6.906;2022-12-07T14:45:17;16.60;;;11.07;;
18716;SDS011;9487;50.892;6.906;2022-12-07T14:47:46;14.13;;;10.53;;
18716;SDS011;9487;50.892;6.906;2022-12-07T14:50:13;13.80;;;10.73;;
18716;SDS011;9487;50.892;6.906;2022-12-07T14:52:42;18.13;;;11.90;;
18716;SDS011;9487;50.892;6.906;2022-12-07T14:55:13;19.43;;;12.20;;
18716;SDS011;9487;50.892;6.906;2022-12-07T14:57:43;15.83;;;11.60;;
18716;SDS011;9487;50.892;6.906;2022-12-07T15:00:13;17.80;;;12.07;;
18716;SDS011;9487;50.892;6.906;2022-12-07T15:02:42;15.37;;;11.90;;
18716;SDS011;9487;50.892;6.906;2022-12-07T15:05:09;13.60;;;12.20;;
18716;SDS011;9487;50.892;6.906;2022-12-07T15:07:36;16.20;;;12.43;;
18716;SDS011;9487;50.892;6.906;2022-12-07T15:10:03;17.37;;;13.10;;
18716;SDS011;9487;50.892;6.906;2022-12-07T15:12:30;13.47;;;12.07;;
18716;SDS011;9487;50.892;6.906;2022-12-07T15:14:59;17.63;;;12.60;;
18716;SDS011;9487;50.892;6.906;2022-12-07T15:17:26;13.77;;;12.37;;